Time;durP1;ratioP1;P1;durP2;ratioP2;P2;SDS_P1;SDS_P2;PMS_P1;PMS_P2;Temp;Humidity;BMP_temperature;BMP_pressure;BME280_temperature;BME280_humidity;BME280_pressure;Samples;Min_cycle;Max_cycle;Signal;HPM_P1;HPM_P2
2021/03/08 00:02:43;;;;;;;;;;;;;;;0.58;73.63;101011.13;1600175;88;20666;-77
2021/03/08 00:05:27;;;;;;;;;;;;;;;0.57;73.85;101014.50;1578543;88;20268;-77
2021/03/08 00:08:12;;;;;;;;;;;;;;;0.56;73.98;101014.04;1609145;87;20295;-77
2021/03/08 00:10:57;;;;;;;;;;;;;;;0.54;73.86;101026.71;1596863;87;20244;-78
2021/03/08 00:13:42;;;;;;;;;;;;;;;0.51;73.87;101024.52;1605968;88;681977;-78
2021/03/08 00:16:27;;;;;;;;;;;;;;;0.49;73.90;101028.69;1617815;85;20226;-77
2021/03/08 00:19:11;;;;;;;;;;;;;;;0.44;73.87;101025.14;1625575;85;20310;-77
2021/03/08 00:21:56;;;;;;;;;;;;;;;0.42;73.91;101030.17;1620833;86;20576;-77
2021/03/08 00:24:40;;;;;;;;;;;;;;;0.37;73.88;101027.89;1609375;87;20340;-77
2021/03/08 00:27:25;;;;;;;;;;;;;;;0.33;73.98;101037.52;1619009;87;20491;-77
2021/03/08 00:30:10;;;;;;;;;;;;;;;0.30;74.03;101036.14;1608780;88;20331;-77
2021/03/08 00:32:56;;;;;;;;;;;;;;;0.26;73.99;101039.00;1584297;88;20319;-77
2021/03/08 00:35:40;;;;;;;;;;;;;;;0.19;74.05;101031.98;1584683;88;20302;-77
2021/03/08 00:38:25;;;;;;;;;;;;;;;0.18;74.16;101034.47;1582970;88;20322;-76
2021/03/08 00:41:10;;;;;;;;;;;;;;;0.13;74.07;101036.86;1593761;88;20292;-76
2021/03/08 00:43:54;;;;;;;;;;;;;;;0.12;74.23;101040.63;1583442;88;20407;-77
2021/03/08 00:46:39;;;;;;;;;;;;;;;0.11;74.20;101040.17;1594478;88;20340;-77
2021/03/08 00:49:23;;;;;;;;;;;;;;;0.09;74.33;101037.98;1595040;88;20308;-77
2021/03/08 00:52:08;;;;;;;;;;;;;;;0.08;74.43;101037.52;1592951;87;20309;-76
2021/03/08 00:54:53;;;;;;;;;;;;;;;0.09;74.46;101038.84;1582840;89;20312;-77
2021/03/08 00:57:38;;;;;;;;;;;;;;;0.11;74.53;101035.95;1585490;88;20323;-77
2021/03/08 01:00:24;;;;;;;;;;;;;;;0.06;74.42;101033.66;1586075;88;20338;-77
2021/03/08 01:03:09;;;;;;;;;;;;;;;0.02;74.62;101026.75;1595173;87;20300;-77
2021/03/08 01:05:54;;;;;;;;;;;;;;;0.00;74.60;101041.11;1587822;88;20326;-77
2021/03/08 01:08:38;;;;;;;;;;;;;;;-0.03;74.66;101035.92;1594191;88;20294;-77
2021/03/08 01:11:23;;;;;;;;;;;;;;;-0.08;74.61;101034.91;1594006;87;20588;-77
2021/03/08 01:14:07;;;;;;;;;;;;;;;-0.09;74.79;101034.45;1572987;89;20304;-77
2021/03/08 01:16:52;;;;;;;;;;;;;;;-0.07;74.81;101037.91;1593587;88;20308;-77
2021/03/08 01:19:37;;;;;;;;;;;;;;;-0.10;74.72;101031.05;1582916;88;20336;-77
2021/03/08 01:22:21;;;;;;;;;;;;;;;-0.13;74.66;101033.48;1589727;88;20597;-77
2021/03/08 01:25:12;;;;;;;;;;;;;;;-0.24;74.52;101028.84;1587000;88;20687;-77
2021/03/08 01:27:58;;;;;;;;;;;;;;;-0.33;74.47;101033.20;1593556;88;20329;-78
2021/03/08 01:30:44;;;;;;;;;;;;;;;-0.41;74.54;101036.75;1603421;87;20227;-78
2021/03/08 01:33:29;;;;;;;;;;;;;;;-0.48;74.58;101042.42;1627685;87;20328;-78
2021/03/08 01:36:13;;;;;;;;;;;;;;;-0.56;74.73;101034.97;1622928;85;20555;-78
2021/03/08 01:38:58;;;;;;;;;;;;;;;-0.58;74.79;101035.73;1608422;87;20303;-77
2021/03/08 01:41:42;;;;;;;;;;;;;;;-0.65;74.67;101037.17;1627816;87;20343;-78
2021/03/08 01:44:27;;;;;;;;;;;;;;;-0.73;74.69;101044.52;1622689;87;20333;-79
2021/03/08 01:47:12;;;;;;;;;;;;;;;-0.84;74.69;101045.80;1613653;87;20342;-78
2021/03/08 01:49:56;;;;;;;;;;;;;;;-0.91;74.81;101045.11;1632000;87;20305;-78
2021/03/08 01:52:41;;;;;;;;;;;;;;;-0.93;74.85;101049.67;1623064;85;20340;-78
2021/03/08 01:55:26;;;;;;;;;;;;;;;-0.97;74.80;101047.42;1609595;85;20356;-78
2021/03/08 01:58:11;;;;;;;;;;;;;;;-1.01;74.86;101047.70;1622736;85;21207;-78
2021/03/08 02:00:57;;;;;;;;;;;;;;;-1.07;74.87;101050.05;1636035;84;20339;-78
2021/03/08 02:03:41;;;;;;;;;;;;;;;-1.07;74.96;101050.05;1612515;87;20331;-78
2021/03/08 02:06:26;;;;;;;;;;;;;;;-1.13;74.90;101047.27;1622344;88;20606;-77
2021/03/08 02:09:11;;;;;;;;;;;;;;;-1.14;75.02;101052.30;1623486;84;20335;-77
2021/03/08 02:11:59;;;;;;;;;;;;;;;-1.21;74.93;101052.86;1623107;87;20340;-77
2021/03/08 02:14:48;;;;;;;;;;;;;;;-1.23;74.91;101050.67;1622905;86;20492;-77
2021/03/08 02:17:36;;;;;;;;;;;;;;;-1.23;75.03;101052.80;1623231;85;20347;-77
2021/03/08 02:20:30;;;;;;;;;;;;;;;-1.22;75.05;101052.41;1614034;87;20340;-78
2021/03/08 02:23:50;;;;;;;;;;;;;;;-1.20;75.18;101054.19;1607076;87;20420;-78
2021/03/08 02:26:50;;;;;;;;;;;;;;;-1.20;75.04;101057.13;1614965;86;20260;-78
2021/03/08 02:29:38;;;;;;;;;;;;;;;-1.22;75.02;101058.75;1621745;87;20327;-78
2021/03/08 02:32:35;;;;;;;;;;;;;;;-1.27;75.08;101069.12;1620512;87;20323;-78
2021/03/08 02:35:25;;;;;;;;;;;;;;;-1.31;75.05;101066.86;1620910;87;20328;-78
2021/03/08 02:38:13;;;;;;;;;;;;;;;-1.34;75.03;101073.09;1616975;88;20343;-78
2021/03/08 02:41:03;;;;;;;;;;;;;;;-1.40;74.84;101077.52;1600252;86;20341;-78
2021/03/08 02:44:03;;;;;;;;;;;;;;;-1.48;75.07;101075.08;1622277;87;20315;-78
2021/03/08 02:46:48;;;;;;;;;;;;;;;-1.51;75.03;101079.16;1622538;87;20323;-78
2021/03/08 02:49:34;;;;;;;;;;;;;;;-1.53;75.05;101082.90;1605700;87;20396;-78
2021/03/08 02:52:20;;;;;;;;;;;;;;;-1.58;75.04;101085.69;1575999;89;20327;-78
2021/03/08 02:55:06;;;;;;;;;;;;;;;-1.60;75.10;101087.69;1585155;89;20274;-78
2021/03/08 02:57:52;;;;;;;;;;;;;;;-1.66;75.06;101084.51;1568135;88;20347;-78
2021/03/08 03:00:38;;;;;;;;;;;;;;;-1.70;74.99;101091.52;1592972;86;20326;-78
2021/03/08 03:03:22;;;;;;;;;;;;;;;-1.75;75.09;101093.87;1597244;88;21018;-78
2021/03/08 03:06:07;;;;;;;;;;;;;;;-1.77;75.08;101098.01;1563574;89;20338;-78
2021/03/08 03:08:53;;;;;;;;;;;;;;;-1.84;74.94;101097.28;1571110;90;20302;-78
2021/03/08 03:11:41;;;;;;;;;;;;;;;-1.89;74.93;101096.23;1586920;89;20307;-78
2021/03/08 03:14:26;;;;;;;;;;;;;;;-1.92;75.02;101100.30;1583150;88;20319;-78
2021/03/08 03:17:13;;;;;;;;;;;;;;;-1.96;74.87;101100.98;1579264;88;20574;-78
2021/03/08 03:20:00;;;;;;;;;;;;;;;-2.02;74.94;101107.52;1587018;88;20314;-78
2021/03/08 03:22:46;;;;;;;;;;;;;;;-2.08;74.95;101111.48;1578266;88;20243;-78
2021/03/08 03:25:31;;;;;;;;;;;;;;;-2.14;74.96;101109.56;1573829;89;20345;-78
2021/03/08 03:28:17;;;;;;;;;;;;;;;-2.20;74.90;101121.09;1597677;85;20343;-78
2021/03/08 03:31:05;;;;;;;;;;;;;;;-2.25;74.96;101118.36;1572344;89;20612;-78
2021/03/08 03:33:50;;;;;;;;;;;;;;;-2.30;75.04;101119.83;1553814;89;20618;-78
2021/03/08 03:36:36;;;;;;;;;;;;;;;-2.34;75.00;101122.63;1566125;89;20298;-78
2021/03/08 03:39:23;;;;;;;;;;;;;;;-2.39;74.98;101126.62;1573098;89;20306;-79
2021/03/08 03:42:08;;;;;;;;;;;;;;;-2.44;74.99;101132.27;1581398;89;20306;-78
2021/03/08 03:44:52;;;;;;;;;;;;;;;-2.49;75.11;101128.27;1579705;89;20707;-78
2021/03/08 03:47:41;;;;;;;;;;;;;;;-2.54;75.01;101133.53;1576451;90;20314;-78
2021/03/08 03:50:25;;;;;;;;;;;;;;;-2.60;74.98;101135.81;1583748;89;20275;-78
2021/03/08 03:53:10;;;;;;;;;;;;;;;-2.65;74.95;101145.27;1569769;89;20316;-78
2021/03/08 03:55:55;;;;;;;;;;;;;;;-2.71;75.01;101142.92;1578224;89;20318;-79
2021/03/08 03:58:43;;;;;;;;;;;;;;;-2.76;74.92;101143.50;1571461;89;20323;-77
2021/03/08 04:01:37;;;;;;;;;;;;;;;-2.81;74.93;101144.95;1585392;89;20633;-77
2021/03/08 04:04:32;;;;;;;;;;;;;;;-2.88;74.94;101150.12;1578720;89;20287;-78
2021/03/08 04:07:17;;;;;;;;;;;;;;;-2.92;74.87;101156.23;1574127;89;20255;-78
2021/03/08 04:10:03;;;;;;;;;;;;;;;-3.04;74.71;101148.94;1576448;89;20317;-79
2021/03/08 04:12:51;;;;;;;;;;;;;;;-3.13;74.64;101162.45;1558393;89;20325;-78
2021/03/08 04:15:37;;;;;;;;;;;;;;;-3.17;74.95;101160.17;1570202;89;20314;-78
2021/03/08 04:18:23;;;;;;;;;;;;;;;-3.21;74.94;101167.14;1571542;89;20443;-78
2021/03/08 04:21:07;;;;;;;;;;;;;;;-3.25;74.86;101170.70;1562701;90;20427;-78
2021/03/08 04:23:54;;;;;;;;;;;;;;;-3.29;75.05;101173.88;1579843;90;20301;-78
2021/03/08 04:26:39;;;;;;;;;;;;;;;-3.31;74.98;101179.26;1578997;89;20306;-78
2021/03/08 04:29:23;;;;;;;;;;;;;;;-3.35;74.98;101176.58;1575141;89;20665;-78
2021/03/08 04:32:10;;;;;;;;;;;;;;;-3.41;75.01;101178.81;1556248;89;20307;-78
2021/03/08 04:34:55;;;;;;;;;;;;;;;-3.44;75.07;101179.92;1566027;90;20311;-77
2021/03/08 04:37:40;;;;;;;;;;;;;;;-3.47;74.94;101188.63;1553498;91;20308;-77
2021/03/08 04:40:25;;;;;;;;;;;;;;;-3.54;74.90;101190.38;1570341;89;20331;-77
2021/03/08 04:43:10;;;;;;;;;;;;;;;-3.58;74.93;101188.48;1568062;89;20318;-77
2021/03/08 04:45:56;;;;;;;;;;;;;;;-3.62;75.03;101188.25;1570332;90;20312;-78
2021/03/08 04:48:41;;;;;;;;;;;;;;;-3.67;74.99;101191.45;1576908;89;20328;-78
2021/03/08 04:51:26;;;;;;;;;;;;;;;-3.69;75.03;101194.30;1560375;89;20412;-78
2021/03/08 04:54:10;;;;;;;;;;;;;;;-3.72;75.11;101196.66;1564982;90;20310;-78
2021/03/08 04:56:56;;;;;;;;;;;;;;;-3.74;75.03;101200.77;1572576;89;20302;-78
2021/03/08 04:59:41;;;;;;;;;;;;;;;-3.77;74.97;101205.67;1567262;89;20327;-78
2021/03/08 05:02:26;;;;;;;;;;;;;;;-3.82;74.98;101204.96;1563410;89;20286;-77
2021/03/08 05:05:12;;;;;;;;;;;;;;;-3.87;74.81;101207.25;1580997;89;20644;-79
2021/03/08 05:07:59;;;;;;;;;;;;;;;-3.90;74.88;101205.83;1553938;91;20327;-78
2021/03/08 05:10:44;;;;;;;;;;;;;;;-3.94;74.98;101210.64;1572416;89;20235;-78
2021/03/08 05:13:31;;;;;;;;;;;;;;;-3.97;75.04;101208.83;1572270;89;20612;-78
2021/03/08 05:16:17;;;;;;;;;;;;;;;-4.01;74.97;101209.06;1576455;89;20315;-77
2021/03/08 05:19:03;;;;;;;;;;;;;;;-4.06;74.93;101211.75;1581870;89;20328;-77
2021/03/08 05:21:49;;;;;;;;;;;;;;;-4.10;74.77;101211.11;1565939;89;20716;-77
2021/03/08 05:24:34;;;;;;;;;;;;;;;-4.14;74.86;101219.31;1569071;89;20308;-78
2021/03/08 05:27:19;;;;;;;;;;;;;;;-4.19;74.88;101222.41;1564787;89;20313;-78
2021/03/08 05:30:05;;;;;;;;;;;;;;;-4.24;74.98;101226.35;1572359;89;20318;-74
2021/03/08 05:32:52;;;;;;;;;;;;;;;-4.25;75.01;101228.40;1568710;90;20330;-74
2021/03/08 05:35:37;;;;;;;;;;;;;;;-4.26;74.87;101229.19;1546877;88;20338;-74
2021/03/08 05:38:24;;;;;;;;;;;;;;;-4.35;74.70;101232.09;1549114;91;20328;-75
2021/03/08 05:41:16;;;;;;;;;;;;;;;-4.37;74.95;101234.92;1517006;92;20446;-75
2021/03/08 05:44:06;;;;;;;;;;;;;;;-4.35;75.18;101238.01;1515922;92;20437;-75
2021/03/08 05:47:04;;;;;;;;;;;;;;;-4.33;75.04;101243.14;1528869;92;20587;-74
2021/03/08 05:50:13;;;;;;;;;;;;;;;-4.32;75.01;101241.48;1573827;88;20342;-75
2021/03/08 05:53:27;;;;;;;;;;;;;;;-4.34;74.98;101249.84;1558561;91;20334;-75
2021/03/08 05:56:18;;;;;;;;;;;;;;;-4.25;75.19;101251.99;1578334;89;20611;-75
2021/03/08 05:59:23;;;;;;;;;;;;;;;-4.00;75.43;101256.66;1568463;89;20339;-75
2021/03/08 06:02:34;;;;;;;;;;;;;;;-3.68;75.77;101264.26;1575393;89;20351;-75
2021/03/08 06:05:26;;;;;;;;;;;;;;;-3.22;75.82;101265.30;1582221;89;20978;-75
2021/03/08 06:08:31;;;;;;;;;;;;;;;-2.65;75.96;101260.43;1577495;89;20700;-75
2021/03/08 06:11:16;;;;;;;;;;;;;;;-2.13;75.88;101262.42;1583477;89;20752;-74
2021/03/08 06:14:02;;;;;;;;;;;;;;;-1.56;75.92;101263.24;1586558;88;20957;-75
2021/03/08 06:16:47;;;;;;;;;;;;;;;-1.08;75.62;101272.03;1581708;89;20305;-74
2021/03/08 06:19:32;;;;;;;;;;;;;;;-0.65;75.73;101277.16;1552043;91;20275;-75
2021/03/08 06:22:17;;;;;;;;;;;;;;;-0.33;75.09;101277.12;1555133;91;20292;-74
2021/03/08 06:25:03;;;;;;;;;;;;;;;-0.21;74.93;101285.21;1586719;89;20307;-75
2021/03/08 06:27:48;;;;;;;;;;;;;;;-0.07;75.02;101286.60;1552561;91;20269;-75
2021/03/08 06:30:32;;;;;;;;;;;;;;;0.23;75.23;101293.61;1544091;91;20418;-75
2021/03/08 06:33:17;;;;;;;;;;;;;;;0.51;75.19;101295.47;1549573;91;20323;-74
2021/03/08 06:36:02;;;;;;;;;;;;;;;0.68;74.77;101296.03;1594348;88;20304;-74
2021/03/08 06:38:46;;;;;;;;;;;;;;;0.71;74.62;101301.23;1564532;90;20316;-74
2021/03/08 06:41:33;;;;;;;;;;;;;;;0.81;74.90;101304.16;1559759;90;20209;-75
2021/03/08 06:44:18;;;;;;;;;;;;;;;0.99;75.16;101306.05;1565903;90;20297;-75
2021/03/08 06:47:04;;;;;;;;;;;;;;;1.16;74.97;101305.31;1563360;90;20453;-74
2021/03/08 06:49:49;;;;;;;;;;;;;;;1.20;74.72;101307.15;1562959;90;20670;-74
2021/03/08 06:52:40;;;;;;;;;;;;;;;1.19;74.71;101314.73;1561600;90;20353;-75
2021/03/08 06:55:25;;;;;;;;;;;;;;;1.18;74.83;101324.06;1541026;90;20317;-74
2021/03/08 06:58:18;;;;;;;;;;;;;;;1.18;74.73;101329.16;1565041;90;20623;-74
2021/03/08 07:01:02;;;;;;;;;;;;;;;1.16;74.75;101332.47;1564415;89;20348;-74
2021/03/08 07:03:47;;;;;;;;;;;;;;;1.22;74.87;101341.17;1562040;90;20593;-74
2021/03/08 07:06:32;;;;;;;;;;;;;;;1.26;74.89;101342.14;1563768;90;20280;-75
2021/03/08 07:09:17;;;;;;;;;;;;;;;1.46;75.31;101342.80;1541999;90;20367;-73
2021/03/08 07:12:08;;;;;;;;;;;;;;;1.68;75.38;101346.88;1541275;90;20326;-73
2021/03/08 07:15:04;;;;;;;;;;;;;;;1.97;75.36;101349.52;1560693;90;21019;-73
2021/03/08 07:17:48;;;;;;;;;;;;;;;2.31;75.55;101356.88;1559459;90;20328;-73
2021/03/08 07:20:33;;;;;;;;;;;;;;;2.66;75.46;101354.03;1561523;90;20313;-73
2021/03/08 07:23:21;;;;;;;;;;;;;;;2.95;75.42;101353.56;1544801;90;20652;-74
2021/03/08 07:26:07;;;;;;;;;;;;;;;3.26;75.24;101357.75;1554801;90;20296;-73
2021/03/08 07:29:14;;;;;;;;;;;;;;;3.56;75.09;101357.24;1568448;90;20560;-73
2021/03/08 07:31:58;;;;;;;;;;;;;;;3.80;75.09;101363.33;1590330;88;20576;-73
2021/03/08 07:34:46;;;;;;;;;;;;;;;4.13;75.03;101361.09;1529496;90;20261;-73
2021/03/08 07:37:37;;;;;;;;;;;;;;;4.33;74.80;101355.96;1544757;90;20313;-73
2021/03/08 07:40:23;;;;;;;;;;;;;;;4.49;74.48;101355.45;1570244;89;20184;-73
2021/03/08 07:43:08;;;;;;;;;;;;;;;4.59;74.48;101354.81;1565922;90;20288;-73
2021/03/08 07:45:52;;;;;;;;;;;;;;;4.77;74.58;101360.68;1538231;90;20291;-74
2021/03/08 07:48:40;;;;;;;;;;;;;;;5.00;74.57;101362.41;1561562;90;20301;-73
2021/03/08 07:51:25;;;;;;;;;;;;;;;5.19;74.53;101363.19;1562911;90;20293;-74
2021/03/08 07:54:09;;;;;;;;;;;;;;;5.36;74.58;101361.31;1561127;90;20206;-74
2021/03/08 07:56:54;;;;;;;;;;;;;;;5.42;74.58;101354.59;1591125;88;20179;-73
2021/03/08 07:59:39;;;;;;;;;;;;;;;5.52;74.68;101358.17;1561665;90;20520;-73
2021/03/08 08:02:23;;;;;;;;;;;;;;;5.62;74.12;101365.18;1551721;90;20302;-73
2021/03/08 08:05:08;;;;;;;;;;;;;;;5.70;74.00;101359.75;1586647;88;20287;-73
2021/03/08 08:07:54;;;;;;;;;;;;;;;5.84;73.84;101354.80;1593988;88;20316;-76
2021/03/08 08:10:39;;;;;;;;;;;;;;;5.81;73.65;101357.33;1593860;88;20590;-76
2021/03/08 08:13:35;;;;;;;;;;;;;;;5.47;73.97;101364.92;1565424;87;20318;-76
2021/03/08 08:16:23;;;;;;;;;;;;;;;5.35;73.90;101361.73;1562991;90;20284;-76
2021/03/08 08:19:08;;;;;;;;;;;;;;;5.08;74.03;101369.82;1563957;90;20273;-76
2021/03/08 08:21:55;;;;;;;;;;;;;;;4.93;74.00;101374.23;1563209;90;20480;-76
2021/03/08 08:24:41;;;;;;;;;;;;;;;4.64;73.97;101376.67;1565430;90;20642;-76
2021/03/08 08:27:26;;;;;;;;;;;;;;;4.56;74.15;101381.64;1562810;90;20221;-76
2021/03/08 08:30:11;;;;;;;;;;;;;;;4.54;74.30;101379.87;1565421;90;20440;-77
2021/03/08 08:32:57;;;;;;;;;;;;;;;4.53;74.29;101372.61;1564174;90;20316;-76
2021/03/08 08:35:41;;;;;;;;;;;;;;;4.53;74.26;101378.14;1548735;90;20970;-76
2021/03/08 08:38:26;;;;;;;;;;;;;;;4.46;73.80;101383.55;1560726;90;20338;-74
2021/03/08 08:41:29;;;;;;;;;;;;;;;4.26;73.56;101381.84;1541885;90;20328;-73
2021/03/08 08:44:20;;;;;;;;;;;;;;;4.18;74.08;101383.78;1561639;90;20317;-73
2021/03/08 08:47:27;;;;;;;;;;;;;;;4.26;73.93;101389.94;1558403;90;20580;-73
2021/03/08 08:50:13;;;;;;;;;;;;;;;4.36;74.15;101390.59;1565698;89;20316;-73
2021/03/08 08:52:58;;;;;;;;;;;;;;;4.60;73.78;101392.39;1535281;92;20308;-73
2021/03/08 08:55:46;;;;;;;;;;;;;;;4.91;73.47;101399.39;1559647;90;20294;-73
2021/03/08 08:58:37;;;;;;;;;;;;;;;4.70;73.29;101400.23;1561200;90;20970;-73
2021/03/08 09:01:54;;;;;;;;;;;;;;;4.37;73.63;101392.73;1560183;90;21081;-73
2021/03/08 09:04:19;;;;;;;;;;;;;;;4.04;73.56;101393.73;1556532;90;20588;-73
2021/03/08 09:07:02;;;;;;;;;;;;;;;3.68;73.71;101394.14;1559738;90;20308;-73
2021/03/08 09:09:50;;;;;;;;;;;;;;;3.53;73.95;101402.33;1562302;90;20440;-74
2021/03/08 09:12:37;;;;;;;;;;;;;;;3.39;74.01;101399.83;1566993;90;20293;-72
2021/03/08 09:15:26;;;;;;;;;;;;;;;3.29;73.99;101404.70;1555187;90;20316;-73
2021/03/08 09:18:12;;;;;;;;;;;;;;;3.25;74.11;101405.86;1567496;90;20414;-73
2021/03/08 09:21:10;;;;;;;;;;;;;;;3.17;73.92;101410.77;1560903;90;20302;-73
2021/03/08 09:23:56;;;;;;;;;;;;;;;3.12;73.69;101411.05;1518163;92;20353;-73
2021/03/08 09:26:41;;;;;;;;;;;;;;;2.98;73.52;101414.54;1534365;91;20374;-73
2021/03/08 09:29:26;;;;;;;;;;;;;;;2.85;73.53;101412.46;1552910;91;20348;-73
2021/03/08 09:32:10;;;;;;;;;;;;;;;2.70;73.49;101402.22;1552262;91;20294;-73
2021/03/08 09:35:04;;;;;;;;;;;;;;;2.66;73.70;101414.91;1594788;88;20326;-73
2021/03/08 09:37:55;;;;;;;;;;;;;;;2.69;73.82;101412.84;1568183;88;20688;-73
2021/03/08 09:40:45;;;;;;;;;;;;;;;2.57;73.49;101412.52;1573760;89;20355;-73
2021/03/08 09:43:35;;;;;;;;;;;;;;;2.54;73.59;101413.30;1562881;89;20290;-74
2021/03/08 09:46:19;;;;;;;;;;;;;;;2.60;73.95;101416.44;1566226;89;20316;-74
2021/03/08 09:49:04;;;;;;;;;;;;;;;2.73;73.80;101415.08;1540992;91;22074;-74
2021/03/08 09:51:49;;;;;;;;;;;;;;;2.83;73.70;101427.29;1537955;90;20303;-74
2021/03/08 09:54:37;;;;;;;;;;;;;;;2.84;73.42;101419.67;1571395;90;20378;-74
2021/03/08 09:57:35;;;;;;;;;;;;;;;2.89;73.50;101428.33;1573815;89;20332;-74
2021/03/08 10:00:22;;;;;;;;;;;;;;;2.99;73.90;101421.79;1571823;90;20294;-74
2021/03/08 10:03:08;;;;;;;;;;;;;;;3.14;73.62;101433.67;1563798;90;20306;-74
2021/03/08 10:05:54;;;;;;;;;;;;;;;3.08;73.40;101425.88;1564455;90;20198;-73
2021/03/08 10:08:39;;;;;;;;;;;;;;;3.20;73.58;101427.45;1544729;90;20308;-73
2021/03/08 10:11:25;;;;;;;;;;;;;;;3.29;73.24;101425.56;1541792;90;20328;-74
2021/03/08 10:14:24;;;;;;;;;;;;;;;3.37;72.95;101425.77;1572190;90;20624;-74
2021/03/08 10:17:10;;;;;;;;;;;;;;;3.32;72.24;101430.34;1574414;90;20667;-73
2021/03/08 10:19:57;;;;;;;;;;;;;;;3.21;72.31;101435.98;1560873;90;20336;-73
2021/03/08 10:22:41;;;;;;;;;;;;;;;3.18;72.50;101433.34;1561005;90;20599;-73
2021/03/08 10:25:32;;;;;;;;;;;;;;;3.18;72.80;101426.96;1562680;90;20628;-73
2021/03/08 10:28:16;;;;;;;;;;;;;;;3.27;72.50;101435.73;1561564;90;20327;-73
2021/03/08 10:31:02;;;;;;;;;;;;;;;3.31;72.51;101433.72;1546905;90;20316;-74
2021/03/08 10:33:55;;;;;;;;;;;;;;;3.44;72.33;101439.16;1536292;91;20717;-74
2021/03/08 10:36:42;;;;;;;;;;;;;;;3.52;71.83;101438.95;1547026;90;21449;-74
2021/03/08 10:39:28;;;;;;;;;;;;;;;3.51;71.70;101440.64;1563634;90;20957;-74
2021/03/08 10:42:12;;;;;;;;;;;;;;;3.45;71.22;101446.00;1586285;87;20288;-74
2021/03/08 10:44:57;;;;;;;;;;;;;;;3.29;71.22;101445.59;1543337;91;20311;-74
2021/03/08 10:47:41;;;;;;;;;;;;;;;3.17;70.99;101443.12;1572962;89;20301;-74
2021/03/08 10:50:29;;;;;;;;;;;;;;;3.06;71.14;101453.07;1555713;90;20329;-74
2021/03/08 10:53:16;;;;;;;;;;;;;;;2.94;70.68;101457.42;1561665;90;20288;-74
2021/03/08 10:56:01;;;;;;;;;;;;;;;2.82;70.51;101455.80;1557081;90;20606;-74
2021/03/08 10:58:45;;;;;;;;;;;;;;;2.76;70.85;101453.47;1539250;90;20317;-74
2021/03/08 11:01:30;;;;;;;;;;;;;;;2.77;70.73;101462.86;1560535;90;20356;-74
2021/03/08 11:04:24;;;;;;;;;;;;;;;2.77;70.85;101457.76;1563594;89;20349;-74
2021/03/08 11:07:09;;;;;;;;;;;;;;;2.89;70.62;101457.70;1573363;89;20329;-74
2021/03/08 11:09:53;;;;;;;;;;;;;;;2.98;70.26;101456.69;1576645;89;20310;-73
2021/03/08 11:12:38;;;;;;;;;;;;;;;3.03;70.18;101461.06;1558798;90;20288;-73
2021/03/08 11:15:23;;;;;;;;;;;;;;;3.08;70.38;101458.23;1561007;90;20290;-73
2021/03/08 11:18:22;;;;;;;;;;;;;;;3.22;70.51;101455.20;1557617;89;20197;-74
2021/03/08 11:21:23;;;;;;;;;;;;;;;3.30;70.17;101452.84;1545571;90;20265;-73
2021/03/08 11:24:17;;;;;;;;;;;;;;;3.36;70.04;101452.15;1562534;90;20212;-74
2021/03/08 11:27:16;;;;;;;;;;;;;;;3.47;69.73;101444.35;1562147;90;20331;-74
2021/03/08 11:30:04;;;;;;;;;;;;;;;3.61;69.91;101455.39;1562012;90;20262;-75
2021/03/08 11:32:51;;;;;;;;;;;;;;;3.76;69.58;101451.46;1560809;90;20281;-74
2021/03/08 11:35:36;;;;;;;;;;;;;;;3.82;69.58;101449.06;1557252;90;20485;-74
2021/03/08 11:38:25;;;;;;;;;;;;;;;3.91;69.49;101450.16;1576420;89;20305;-74
2021/03/08 11:41:10;;;;;;;;;;;;;;;4.03;69.78;101447.02;1546229;90;20318;-74
2021/03/08 11:43:54;;;;;;;;;;;;;;;4.12;69.38;101448.52;1559621;90;20410;-74
2021/03/08 11:46:39;;;;;;;;;;;;;;;4.18;69.47;101447.36;1562163;90;20421;-74
2021/03/08 11:49:23;;;;;;;;;;;;;;;4.17;69.28;101450.75;1574411;88;688047;-74
2021/03/08 11:52:08;;;;;;;;;;;;;;;4.16;69.26;101449.47;1568026;89;20293;-75
2021/03/08 11:54:53;;;;;;;;;;;;;;;4.16;69.09;101445.62;1605022;88;20282;-75
2021/03/08 11:57:37;;;;;;;;;;;;;;;4.18;69.10;101450.33;1581108;88;20911;-75
2021/03/08 12:00:24;;;;;;;;;;;;;;;4.22;69.13;101441.89;1582750;88;20447;-74
2021/03/08 12:03:08;;;;;;;;;;;;;;;4.29;68.90;101442.48;1554081;90;20294;-74
2021/03/08 12:05:53;;;;;;;;;;;;;;;4.31;68.74;101448.09;1559966;90;20298;-74
2021/03/08 12:08:38;;;;;;;;;;;;;;;4.35;68.91;101449.44;1560796;90;20302;-74
2021/03/08 12:11:22;;;;;;;;;;;;;;;4.38;68.02;101446.95;1558430;90;20355;-77
2021/03/08 12:14:07;;;;;;;;;;;;;;;4.39;68.95;101439.30;1559047;90;20325;-74
2021/03/08 12:16:52;;;;;;;;;;;;;;;4.46;68.93;101444.15;1595283;88;20289;-75
2021/03/08 12:19:36;;;;;;;;;;;;;;;4.47;68.54;101445.47;1558214;90;20283;-75
2021/03/08 12:22:20;;;;;;;;;;;;;;;4.41;68.25;101448.30;1562651;88;20418;-75
2021/03/08 12:25:07;;;;;;;;;;;;;;;4.25;68.18;101440.69;1557494;90;20219;-74
2021/03/08 12:27:52;;;;;;;;;;;;;;;4.14;68.24;101439.19;1556529;90;20598;-75
2021/03/08 12:30:36;;;;;;;;;;;;;;;4.06;68.26;101436.00;1559067;90;20536;-74
2021/03/08 12:33:21;;;;;;;;;;;;;;;4.04;68.29;101441.49;1557757;90;20347;-75
2021/03/08 12:36:06;;;;;;;;;;;;;;;4.04;68.51;101435.09;1561974;90;20328;-75
2021/03/08 12:38:51;;;;;;;;;;;;;;;4.03;68.19;101440.63;1580309;89;20334;-75
2021/03/08 12:41:35;;;;;;;;;;;;;;;3.98;68.45;101440.52;1563024;90;20319;-74
2021/03/08 12:44:20;;;;;;;;;;;;;;;3.94;68.26;101438.72;1580088;89;20294;-74
2021/03/08 12:47:05;;;;;;;;;;;;;;;3.94;68.41;101439.12;1579686;89;20314;-74
2021/03/08 12:49:49;;;;;;;;;;;;;;;3.91;68.25;101441.61;1582069;89;20293;-74
2021/03/08 12:52:34;;;;;;;;;;;;;;;3.89;68.41;101435.17;1577906;89;20319;-74
2021/03/08 12:55:19;;;;;;;;;;;;;;;3.89;68.06;101439.02;1580977;87;20306;-74
2021/03/08 12:58:04;;;;;;;;;;;;;;;3.83;67.92;101439.28;1595122;88;20321;-74
2021/03/08 13:00:48;;;;;;;;;;;;;;;3.76;68.00;101439.54;1586585;89;20645;-74
2021/03/08 13:03:34;;;;;;;;;;;;;;;3.83;68.15;101438.86;1580445;89;20298;-74
2021/03/08 13:06:19;;;;;;;;;;;;;;;3.95;68.30;101443.00;1605339;87;21069;-74
2021/03/08 13:09:05;;;;;;;;;;;;;;;4.05;68.03;101438.97;1587436;87;20569;-74
2021/03/08 13:11:49;;;;;;;;;;;;;;;4.13;68.00;101439.16;1575299;89;20248;-75
2021/03/08 13:14:34;;;;;;;;;;;;;;;4.23;68.14;101438.50;1576801;89;20296;-74
2021/03/08 13:17:18;;;;;;;;;;;;;;;4.29;67.84;101448.47;1581741;87;20318;-74
2021/03/08 13:20:09;;;;;;;;;;;;;;;4.21;67.64;101449.98;1607085;86;20292;-74
2021/03/08 13:22:53;;;;;;;;;;;;;;;4.09;67.30;101447.59;1607974;87;20329;-74
2021/03/08 13:25:38;;;;;;;;;;;;;;;3.94;67.36;101450.23;1610920;87;21114;-75
2021/03/08 13:28:22;;;;;;;;;;;;;;;3.94;67.70;101455.76;1577653;89;20314;-74
2021/03/08 13:31:07;;;;;;;;;;;;;;;3.95;67.65;101453.23;1595772;87;20328;-74
2021/03/08 13:33:51;;;;;;;;;;;;;;;4.03;67.79;101455.12;1607368;87;20683;-74
2021/03/08 13:36:36;;;;;;;;;;;;;;;4.02;67.55;101458.50;1604605;87;20622;-74
2021/03/08 13:39:21;;;;;;;;;;;;;;;4.02;67.56;101461.06;1556416;90;20303;-74
2021/03/08 13:42:07;;;;;;;;;;;;;;;4.11;67.56;101457.45;1553315;89;20329;-74
2021/03/08 13:44:52;;;;;;;;;;;;;;;4.11;67.33;101450.63;1556695;90;21185;-74
2021/03/08 13:47:37;;;;;;;;;;;;;;;4.13;67.48;101451.95;1598010;88;20307;-74
2021/03/08 13:50:21;;;;;;;;;;;;;;;4.14;66.91;101443.45;1563798;90;20353;-75
2021/03/08 13:53:06;;;;;;;;;;;;;;;4.14;67.09;101453.68;1558375;90;20369;-75
2021/03/08 13:55:50;;;;;;;;;;;;;;;4.13;66.68;101454.52;1551543;90;20334;-74
2021/03/08 13:58:35;;;;;;;;;;;;;;;4.08;66.79;101445.45;1553682;90;20636;-74
2021/03/08 14:01:19;;;;;;;;;;;;;;;4.10;66.77;101449.31;1557643;90;20347;-74
2021/03/08 14:04:04;;;;;;;;;;;;;;;4.12;66.66;101454.92;1556822;90;20308;-74
2021/03/08 14:06:49;;;;;;;;;;;;;;;4.17;66.84;101452.03;1556080;90;20321;-74
2021/03/08 14:09:34;;;;;;;;;;;;;;;4.19;66.80;101452.92;1551894;90;20405;-74
2021/03/08 14:12:19;;;;;;;;;;;;;;;4.24;66.79;101451.75;1552782;90;20631;-73
2021/03/08 14:15:04;;;;;;;;;;;;;;;4.31;66.48;101453.63;1552135;89;326658;-73
2021/03/08 14:17:49;;;;;;;;;;;;;;;4.38;66.60;101459.75;1601680;88;20296;-73
2021/03/08 14:20:34;;;;;;;;;;;;;;;4.37;66.59;101451.20;1553135;90;20307;-73
2021/03/08 14:23:18;;;;;;;;;;;;;;;4.39;66.39;101455.08;1555277;90;20294;-73
2021/03/08 14:26:03;;;;;;;;;;;;;;;4.30;66.27;101448.92;1584523;88;20302;-73